createdAt,value
2018-12-26T00:00:43.035Z,87.16
2018-12-26T00:01:49.003Z,86.97
2018-12-26T00:02:54.928Z,86.93
2018-12-26T00:04:00.850Z,86.67
2018-12-26T00:05:06.420Z,86.62
2018-12-26T00:06:12.222Z,87.28
2018-12-26T00:07:18.207Z,87.30
2018-12-26T00:08:23.751Z,86.84
2018-12-26T00:09:29.657Z,87.31
2018-12-26T00:10:35.607Z,87.55
2018-12-26T00:11:41.560Z,88.25
2018-12-26T00:12:47.491Z,88.21
2018-12-26T00:13:53.383Z,88.04
2018-12-26T00:14:59.338Z,88.00
2018-12-26T00:16:05.318Z,87.83
2018-12-26T00:17:11.266Z,87.44
2018-12-26T00:18:17.251Z,87.18
2018-12-26T00:19:23.428Z,87.26
2018-12-26T00:20:29.348Z,88.05
2018-12-26T00:21:35.422Z,88.43
2018-12-26T00:22:42.096Z,88.17
2018-12-26T00:23:47.981Z,88.46
2018-12-26T00:24:53.915Z,88.22
2018-12-26T00:26:01.762Z,88.13
2018-12-26T00:27:05.833Z,87.80
2018-12-26T00:28:11.795Z,88.52
2018-12-26T00:29:17.712Z,88.35
2018-12-26T00:30:23.645Z,88.13
2018-12-26T00:31:29.585Z,88.27
2018-12-26T00:32:35.524Z,87.88
2018-12-26T00:33:41.497Z,88.35
2018-12-26T00:34:47.430Z,88.90
2018-12-26T00:35:53.352Z,88.36
2018-12-26T00:36:59.303Z,87.77
2018-12-26T00:38:05.292Z,87.78
2018-12-26T00:39:11.253Z,89.09
2018-12-26T00:40:17.215Z,89.16
2018-12-26T00:41:23.181Z,88.25
2018-12-26T00:42:29.140Z,88.12
2018-12-26T00:43:35.139Z,87.85
2018-12-26T00:44:41.055Z,88.51
2018-12-26T00:45:47.008Z,88.41
2018-12-26T00:46:52.962Z,88.66
2018-12-26T00:47:58.958Z,88.41
2018-12-26T00:49:04.903Z,88.98
2018-12-26T00:50:10.889Z,88.88
2018-12-26T00:51:16.827Z,89.44
2018-12-26T00:52:22.869Z,88.42
2018-12-26T00:53:28.810Z,88.11
2018-12-26T00:54:34.794Z,88.18
2018-12-26T00:55:40.742Z,88.14
2018-12-26T00:56:46.671Z,88.21
2018-12-26T00:57:52.607Z,88.42
2018-12-26T00:58:58.562Z,88.18
2018-12-26T01:00:03.879Z,89.23
2018-12-26T01:01:09.590Z,89.15
2018-12-26T01:02:15.501Z,88.40
2018-12-26T01:03:21.494Z,88.81
2018-12-26T01:04:27.465Z,89.56
2018-12-26T01:05:33.417Z,88.61
2018-12-26T01:06:39.384Z,89.04
2018-12-26T01:07:45.363Z,89.44
2018-12-26T01:08:51.290Z,89.21
2018-12-26T01:09:57.223Z,88.53
2018-12-26T01:11:03.216Z,88.29
2018-12-26T01:12:09.183Z,88.75
2018-12-26T01:13:15.155Z,88.39
2018-12-26T01:14:21.089Z,89.11
2018-12-26T01:15:27.039Z,88.56
2018-12-26T01:16:33.028Z,88.30
2018-12-26T01:17:39.129Z,88.30
2018-12-26T01:18:45.128Z,89.06
2018-12-26T01:19:51.109Z,89.11
2018-12-26T01:20:57.056Z,88.17
2018-12-26T01:22:03.016Z,88.27
2018-12-26T01:23:08.928Z,89.22
2018-12-26T01:24:14.830Z,88.80
2018-12-26T01:25:21.347Z,88.61
2018-12-26T01:26:27.455Z,88.87
2018-12-26T01:27:33.428Z,89.33
2018-12-26T01:28:39.561Z,88.86
2018-12-26T01:29:45.462Z,88.42
2018-12-26T01:30:51.423Z,87.91
2018-12-26T01:31:57.369Z,88.23
2018-12-26T01:33:03.341Z,87.76
2018-12-26T01:34:09.285Z,87.80
2018-12-26T01:35:15.231Z,88.06
2018-12-26T01:36:21.173Z,87.96
2018-12-26T01:37:27.121Z,88.94
2018-12-26T01:38:33.065Z,89.20
2018-12-26T01:39:38.969Z,89.06
2018-12-26T01:40:44.948Z,88.90
2018-12-26T01:41:50.900Z,88.76
2018-12-26T01:42:56.879Z,88.25
2018-12-26T01:44:03.844Z,88.30
2018-12-26T01:45:09.843Z,88.54
2018-12-26T01:46:15.792Z,88.87
2018-12-26T01:47:21.702Z,89.16
2018-12-26T01:48:27.747Z,89.75
2018-12-26T01:49:33.641Z,89.14
2018-12-26T01:50:39.585Z,89.79
2018-12-26T01:51:45.521Z,89.79
2018-12-26T01:52:51.506Z,89.18
2018-12-26T01:53:57.473Z,89.38
2018-12-26T01:55:03.151Z,89.31
2018-12-26T01:56:09.078Z,89.59
2018-12-26T01:57:15.025Z,88.91
2018-12-26T01:58:20.720Z,88.19
2018-12-26T01:59:26.627Z,88.65
2018-12-26T02:00:32.573Z,88.54
2018-12-26T02:01:37.470Z,88.56
2018-12-26T02:02:42.394Z,88.69
2018-12-26T02:03:48.214Z,89.15
2018-12-26T02:04:54.212Z,88.83
2018-12-26T02:06:00.185Z,88.39
2018-12-26T02:07:06.124Z,88.38
2018-12-26T02:08:12.075Z,88.18
2018-12-26T02:09:18.063Z,88.52
2018-12-26T02:10:23.967Z,89.02
2018-12-26T02:11:29.895Z,88.94
2018-12-26T02:12:35.882Z,88.82
2018-12-26T02:13:41.838Z,88.74
2018-12-26T02:14:47.821Z,88.96
2018-12-26T02:15:53.801Z,88.45
2018-12-26T02:16:59.725Z,88.01
2018-12-26T02:18:05.689Z,87.92
2018-12-26T02:19:11.652Z,88.33
2018-12-26T02:20:17.238Z,88.32
2018-12-26T02:21:22.520Z,88.90
2018-12-26T02:22:28.512Z,88.38
2018-12-26T02:23:34.485Z,88.57
2018-12-26T02:24:40.469Z,88.25
2018-12-26T02:25:46.508Z,88.29
2018-12-26T02:26:52.476Z,88.13
2018-12-26T02:27:58.392Z,87.84
2018-12-26T02:29:04.016Z,88.51
2018-12-26T02:30:09.384Z,88.39
2018-12-26T02:31:15.348Z,88.12
2018-12-26T02:32:21.240Z,88.43
2018-12-26T02:33:27.194Z,88.55
2018-12-26T02:34:33.097Z,89.06
2018-12-26T02:35:39.206Z,89.13
2018-12-26T02:36:45.135Z,89.34
2018-12-26T02:37:51.038Z,88.71
2018-12-26T02:38:56.975Z,88.79
2018-12-26T02:40:02.846Z,89.27
2018-12-26T02:41:08.773Z,89.41
2018-12-26T02:42:14.726Z,88.61
2018-12-26T02:43:20.769Z,88.70
2018-12-26T02:44:26.705Z,88.02
2018-12-26T02:45:32.680Z,88.57
2018-12-26T02:46:38.646Z,88.47
2018-12-26T02:47:44.614Z,88.75
2018-12-26T02:48:50.547Z,88.40
2018-12-26T02:49:56.482Z,88.71
2018-12-26T02:51:02.077Z,88.45
2018-12-26T02:52:08.042Z,88.45
2018-12-26T02:53:14.026Z,88.97
2018-12-26T02:54:20.115Z,88.12
2018-12-26T02:55:25.996Z,88.54
2018-12-26T02:56:31.956Z,88.83
2018-12-26T02:57:37.860Z,87.71
2018-12-26T02:58:43.802Z,88.23
2018-12-26T02:59:49.697Z,88.47
2018-12-26T03:00:55.603Z,88.93
2018-12-26T03:02:01.555Z,89.25
2018-12-26T03:03:07.474Z,89.06
2018-12-26T03:04:13.396Z,88.85
2018-12-26T03:05:19.021Z,88.53
2018-12-26T03:06:24.949Z,88.66
2018-12-26T03:07:30.937Z,88.20
2018-12-26T03:08:36.927Z,88.03
2018-12-26T03:09:42.840Z,88.24
2018-12-26T03:10:48.807Z,88.53
2018-12-26T03:11:54.748Z,87.69
2018-12-26T03:13:00.681Z,86.92
2018-12-26T03:14:06.661Z,87.24
2018-12-26T03:15:13.069Z,87.17
2018-12-26T03:16:19.000Z,87.27
2018-12-26T03:17:24.922Z,87.99
2018-12-26T03:18:30.501Z,88.09
2018-12-26T03:19:36.471Z,87.01
2018-12-26T03:20:42.448Z,87.48
2018-12-26T03:21:48.457Z,87.07
2018-12-26T03:22:54.408Z,86.61
2018-12-26T03:24:00.360Z,85.33
2018-12-26T03:25:05.711Z,84.39
2018-12-26T03:26:11.580Z,84.13
2018-12-26T03:27:17.532Z,84.81
2018-12-26T03:28:23.520Z,84.34
2018-12-26T03:29:29.477Z,84.31
2018-12-26T03:30:35.393Z,84.82
2018-12-26T03:31:41.317Z,83.92
2018-12-26T03:32:47.272Z,84.41
2018-12-26T03:33:53.227Z,85.35
2018-12-26T03:34:59.228Z,84.07
2018-12-26T03:36:05.178Z,84.01
2018-12-26T03:37:10.786Z,84.35
2018-12-26T03:38:16.331Z,83.62
2018-12-26T03:39:21.935Z,83.08
2018-12-26T03:40:27.163Z,83.05
2018-12-26T03:41:32.721Z,82.98
2018-12-26T03:42:37.986Z,83.63
2018-12-26T03:43:43.221Z,83.36
2018-12-26T03:44:48.510Z,83.19
2018-12-26T03:45:53.809Z,82.67
2018-12-26T03:46:59.030Z,83.04
2018-12-26T03:48:04.305Z,82.17
2018-12-26T03:49:09.910Z,81.84
2018-12-26T03:50:15.823Z,81.37
2018-12-26T03:51:21.069Z,81.82
2018-12-26T03:52:26.675Z,81.64
2018-12-26T03:53:32.623Z,82.41
2018-12-26T03:54:38.717Z,82.78
2018-12-26T03:55:44.271Z,81.95
2018-12-26T03:56:49.868Z,81.69
2018-12-26T03:57:55.464Z,82.20
2018-12-26T03:59:01.386Z,81.41
2018-12-26T04:00:06.706Z,81.24
2018-12-26T04:01:12.656Z,81.47
2018-12-26T04:02:18.574Z,81.39
2018-12-26T04:03:24.204Z,80.92
2018-12-26T04:04:29.842Z,81.45
2018-12-26T04:05:35.802Z,81.35
2018-12-26T04:06:41.063Z,82.52
2018-12-26T04:07:46.272Z,82.63
2018-12-26T04:08:52.212Z,82.67
2018-12-26T04:09:59.317Z,81.91
2018-12-26T04:11:04.915Z,82.05
2018-12-26T04:12:10.836Z,82.24
2018-12-26T04:13:16.768Z,82.39
2018-12-26T04:14:22.002Z,83.18
2018-12-26T04:15:27.957Z,83.00
2018-12-26T04:16:33.930Z,83.56
2018-12-26T04:17:40.040Z,82.81
2018-12-26T04:18:46.296Z,82.47
2018-12-26T04:19:51.728Z,82.82
2018-12-26T04:20:57.698Z,83.33
2018-12-26T04:22:04.184Z,83.08
2018-12-26T04:23:11.907Z,83.36
2018-12-26T04:24:17.629Z,84.55
2018-12-26T04:25:22.931Z,84.43
2018-12-26T04:26:28.868Z,84.97
2018-12-26T04:27:34.802Z,85.04
2018-12-26T04:28:40.750Z,84.25
2018-12-26T04:29:46.017Z,83.86
2018-12-26T04:30:52.004Z,83.00
2018-12-26T04:31:57.932Z,82.85
2018-12-26T04:33:03.909Z,82.95
2018-12-26T04:34:09.922Z,83.29
2018-12-26T04:35:15.961Z,83.83
2018-12-26T04:36:21.954Z,84.21
2018-12-26T04:37:27.916Z,84.45
2018-12-26T04:38:33.982Z,84.05
2018-12-26T04:39:40.091Z,83.62
2018-12-26T04:40:46.340Z,83.54
2018-12-26T04:41:52.439Z,83.17
2018-12-26T04:42:58.468Z,82.99
2018-12-26T04:44:04.500Z,82.52
2018-12-26T04:45:10.471Z,82.90
2018-12-26T04:46:16.446Z,82.59
2018-12-26T04:47:22.376Z,82.87
2018-12-26T04:48:29.103Z,82.86
2018-12-26T04:49:35.094Z,82.80
2018-12-26T04:50:41.119Z,83.06
2018-12-26T04:51:47.049Z,83.17
2018-12-26T04:52:53.064Z,82.83
2018-12-26T04:53:59.006Z,82.91
2018-12-26T04:55:04.646Z,82.71
2018-12-26T04:56:10.356Z,82.74
2018-12-26T04:57:24.642Z,83.24
2018-12-26T04:58:23.192Z,83.40
2018-12-26T04:59:29.113Z,82.61
2018-12-26T05:00:35.718Z,83.49
2018-12-26T05:01:42.241Z,84.08
2018-12-26T05:02:48.281Z,83.57
2018-12-26T05:03:55.229Z,82.85
2018-12-26T05:05:01.664Z,82.64
2018-12-26T05:06:08.210Z,82.41
2018-12-26T05:07:14.127Z,82.72
2018-12-26T05:08:20.064Z,82.46
2018-12-26T05:09:26.529Z,83.48
2018-12-26T05:10:32.893Z,83.08
2018-12-26T05:11:38.784Z,82.11
2018-12-26T05:12:46.516Z,81.60
2018-12-26T05:13:53.735Z,81.88
2018-12-26T05:14:59.533Z,82.79
2018-12-26T05:16:06.184Z,83.68
2018-12-26T05:17:12.036Z,84.14
2018-12-26T05:18:18.249Z,84.08
2018-12-26T05:19:23.898Z,84.24
2018-12-26T05:20:29.878Z,83.53
2018-12-26T05:21:35.985Z,83.03
2018-12-26T05:22:42.460Z,82.74
2018-12-26T05:23:48.973Z,82.19
2018-12-26T05:24:56.868Z,81.59
2018-12-26T05:26:02.561Z,81.39
2018-12-26T05:27:07.789Z,81.27
2018-12-26T05:28:14.025Z,81.40
2018-12-26T05:29:20.023Z,81.73
2018-12-26T05:30:25.992Z,82.23
2018-12-26T05:31:33.461Z,82.46
2018-12-26T05:32:41.032Z,82.15
2018-12-26T05:33:47.209Z,81.92
2018-12-26T05:34:53.598Z,81.47
2018-12-26T05:35:59.760Z,81.97
2018-12-26T05:37:06.187Z,82.29
2018-12-26T05:38:12.128Z,82.21
2018-12-26T05:39:18.442Z,82.52
2018-12-26T05:40:26.876Z,82.39
2018-12-26T05:41:33.664Z,83.23
2018-12-26T05:42:42.352Z,82.77
2018-12-26T05:43:48.417Z,83.23
2018-12-26T05:44:54.958Z,82.61
2018-12-26T05:46:01.575Z,82.84
2018-12-26T05:47:09.078Z,82.88
2018-12-26T05:48:15.481Z,82.88
2018-12-26T05:49:21.421Z,82.47
2018-12-26T05:50:27.050Z,83.05
2018-12-26T05:51:32.980Z,82.90
2018-12-26T05:52:38.926Z,83.23
2018-12-26T05:53:45.480Z,83.41
2018-12-26T05:54:51.529Z,83.56
2018-12-26T05:55:57.478Z,84.11
2018-12-26T05:57:03.559Z,84.91
2018-12-26T05:58:09.591Z,84.19
2018-12-26T05:59:16.145Z,84.04
2018-12-26T06:00:22.427Z,83.94
2018-12-26T06:01:28.880Z,83.54
2018-12-26T06:02:34.853Z,83.42
2018-12-26T06:03:41.204Z,83.27
2018-12-26T06:04:47.464Z,83.61
2018-12-26T06:05:53.383Z,83.72
2018-12-26T06:06:59.369Z,84.40
2018-12-26T06:08:05.350Z,84.53
2018-12-26T06:09:11.354Z,85.37
2018-12-26T06:10:17.302Z,85.29
2018-12-26T06:11:23.197Z,85.04
2018-12-26T06:12:29.122Z,85.37
2018-12-26T06:13:35.038Z,84.53
2018-12-26T06:14:41.147Z,85.00
2018-12-26T06:15:47.057Z,85.13
2018-12-26T06:16:52.984Z,85.43
2018-12-26T06:17:59.108Z,85.50
2018-12-26T06:19:05.059Z,86.47
2018-12-26T06:20:11.607Z,85.97
2018-12-26T06:21:17.589Z,85.79
2018-12-26T06:22:23.701Z,84.99
2018-12-26T06:23:29.619Z,85.12
2018-12-26T06:24:36.323Z,84.59
2018-12-26T06:25:43.861Z,84.20
2018-12-26T06:26:50.347Z,84.94
2018-12-26T06:27:56.320Z,84.96
2018-12-26T06:29:02.405Z,84.91
2018-12-26T06:30:09.309Z,85.45
2018-12-26T06:31:15.263Z,85.87
2018-12-26T06:32:21.372Z,85.12
2018-12-26T06:33:27.306Z,84.71
2018-12-26T06:34:34.527Z,85.78
2018-12-26T06:35:41.023Z,86.62
2018-12-26T06:36:46.984Z,86.67
2018-12-26T06:37:53.927Z,86.74
2018-12-26T06:38:59.890Z,87.20
2018-12-26T06:40:05.734Z,87.48
2018-12-26T06:41:13.098Z,87.68
2018-12-26T06:42:19.045Z,88.18
2018-12-26T06:43:25.571Z,88.11
2018-12-26T06:44:32.702Z,88.65
2018-12-26T06:45:38.084Z,89.21
2018-12-26T06:46:44.693Z,88.84
2018-12-26T06:47:51.112Z,89.19
2018-12-26T06:48:57.084Z,89.18
2018-12-26T06:50:04.123Z,90.28
2018-12-26T06:51:11.301Z,90.84
2018-12-26T06:52:17.236Z,91.04
2018-12-26T06:53:23.856Z,90.24
2018-12-26T06:54:29.826Z,90.67
2018-12-26T06:55:36.333Z,90.56
2018-12-26T06:56:42.348Z,90.87
2018-12-26T06:57:48.867Z,90.62
2018-12-26T06:58:54.851Z,90.82
2018-12-26T07:00:02.086Z,90.81
2018-12-26T07:01:08.009Z,90.87
2018-12-26T07:02:13.932Z,90.96
2018-12-26T07:03:19.894Z,91.27
2018-12-26T07:04:26.015Z,91.44
2018-12-26T07:05:31.979Z,91.72
2018-12-26T07:06:37.936Z,92.50
2018-12-26T07:07:43.971Z,92.43
2018-12-26T07:08:49.923Z,92.19
2018-12-26T07:09:55.892Z,91.98
2018-12-26T07:11:01.843Z,92.48
2018-12-26T07:12:07.830Z,93.05
2018-12-26T07:13:13.766Z,93.12
2018-12-26T07:14:20.075Z,92.53
2018-12-26T07:15:26.613Z,92.11
2018-12-26T07:16:32.565Z,92.62
2018-12-26T07:17:39.845Z,92.54
2018-12-26T07:18:46.087Z,92.83
2018-12-26T07:19:52.653Z,92.82
2018-12-26T07:20:58.684Z,92.81
2018-12-26T07:22:04.653Z,93.75
2018-12-26T07:23:10.613Z,94.20
2018-12-26T07:24:16.536Z,94.42
2018-12-26T07:25:22.488Z,94.28
2018-12-26T07:26:28.736Z,94.13
2018-12-26T07:27:35.216Z,94.42
2018-12-26T07:28:41.708Z,94.82
2018-12-26T07:29:48.068Z,95.00
2018-12-26T07:30:54.859Z,95.59
2018-12-26T07:32:01.636Z,96.50
2018-12-26T07:33:08.929Z,96.33
2018-12-26T07:34:14.904Z,95.94
2018-12-26T07:35:21.429Z,96.11
2018-12-26T07:36:27.801Z,96.62
2018-12-26T07:37:35.584Z,96.95
2018-12-26T07:38:41.545Z,97.73
2018-12-26T07:39:47.465Z,97.44
2018-12-26T07:40:53.869Z,97.38
2018-12-26T07:42:00.684Z,98.08
2018-12-26T07:43:08.440Z,98.50
2018-12-26T07:44:14.979Z,98.98
2018-12-26T07:45:21.148Z,98.85
2018-12-26T07:46:27.047Z,98.30
2018-12-26T07:47:32.964Z,97.80
2018-12-26T07:48:38.961Z,98.68
2018-12-26T07:49:44.936Z,98.61
2018-12-26T07:50:50.934Z,98.39
2018-12-26T07:51:56.898Z,98.13
2018-12-26T07:53:02.808Z,97.74
2018-12-26T07:54:08.743Z,98.01
2018-12-26T07:55:14.406Z,97.26
2018-12-26T07:56:20.425Z,96.97
2018-12-26T07:57:26.375Z,96.45
2018-12-26T07:58:32.357Z,96.30
2018-12-26T07:59:38.301Z,95.63
2018-12-26T08:00:44.268Z,96.19
2018-12-26T08:01:49.832Z,96.56
2018-12-26T08:02:55.779Z,95.93
2018-12-26T08:04:01.770Z,96.24
2018-12-26T08:05:07.745Z,97.22
2018-12-26T08:06:13.785Z,96.92
2018-12-26T08:07:19.709Z,97.27
2018-12-26T08:08:25.672Z,97.68
2018-12-26T08:09:31.589Z,96.87
2018-12-26T08:10:37.489Z,95.82
2018-12-26T08:11:43.450Z,96.19
2018-12-26T08:12:49.360Z,95.86
2018-12-26T08:13:55.301Z,95.55
2018-12-26T08:15:10.173Z,96.22
2018-12-26T08:16:07.300Z,95.71
2018-12-26T08:17:13.254Z,96.13
2018-12-26T08:18:19.233Z,96.34
2018-12-26T08:19:25.231Z,96.54
2018-12-26T08:20:31.227Z,96.83
2018-12-26T08:21:36.860Z,96.78
2018-12-26T08:22:42.845Z,96.03
2018-12-26T08:23:48.775Z,95.90
2018-12-26T08:24:54.376Z,95.58
2018-12-26T08:26:00.282Z,95.73
2018-12-26T08:27:06.247Z,96.32
2018-12-26T08:28:12.181Z,96.88
2018-12-26T08:29:18.133Z,97.15
2018-12-26T08:30:24.054Z,96.40
2018-12-26T08:31:30.000Z,96.13
2018-12-26T08:32:35.918Z,96.12
2018-12-26T08:33:41.871Z,97.06
2018-12-26T08:34:48.558Z,96.07
2018-12-26T08:35:54.905Z,96.15
2018-12-26T08:37:00.832Z,96.82
2018-12-26T08:38:06.964Z,96.71
2018-12-26T08:39:13.445Z,96.26
2018-12-26T08:40:20.936Z,96.21
2018-12-26T08:41:27.450Z,95.94
2018-12-26T08:42:34.631Z,95.50
2018-12-26T08:43:41.059Z,95.39
2018-12-26T08:44:48.012Z,95.59
2018-12-26T08:45:53.954Z,95.42
2018-12-26T08:47:00.379Z,96.22
2018-12-26T08:48:09.016Z,97.29
2018-12-26T08:49:16.006Z,97.33
2018-12-26T08:50:22.618Z,97.46
2018-12-26T08:51:29.104Z,97.46
2018-12-26T08:52:35.564Z,97.22
2018-12-26T08:53:42.037Z,96.96
2018-12-26T08:54:49.384Z,96.34
2018-12-26T08:55:55.880Z,96.37
2018-12-26T08:57:01.856Z,96.33
2018-12-26T08:58:08.123Z,96.52
2018-12-26T08:59:15.144Z,96.55
2018-12-26T09:00:22.768Z,96.37
2018-12-26T09:01:29.918Z,96.33
2018-12-26T09:02:37.809Z,96.17
2018-12-26T09:03:44.461Z,96.20
2018-12-26T09:04:53.072Z,96.19
2018-12-26T09:06:00.223Z,96.15
2018-12-26T09:07:06.918Z,96.39
2018-12-26T09:08:13.379Z,96.69
2018-12-26T09:09:19.448Z,96.47
2018-12-26T09:10:27.991Z,96.37
2018-12-26T09:11:32.301Z,96.61
2018-12-26T09:12:38.903Z,96.50
2018-12-26T09:13:44.995Z,96.85
2018-12-26T09:14:51.213Z,97.28
2018-12-26T09:15:57.315Z,97.94
2018-12-26T09:17:03.446Z,98.45
2018-12-26T09:18:09.683Z,98.30
2018-12-26T09:19:16.178Z,98.34
2018-12-26T09:20:22.512Z,98.86
2018-12-26T09:21:28.867Z,98.69
2018-12-26T09:22:35.075Z,99.41
2018-12-26T09:23:42.645Z,99.92
2018-12-26T09:24:48.971Z,99.81
2018-12-26T09:25:54.575Z,99.98
2018-12-26T09:27:02.547Z,99.88
2018-12-26T09:28:08.593Z,100.00
2018-12-26T09:29:15.028Z,100.00
2018-12-26T09:30:20.894Z,100.00
2018-12-26T09:31:26.860Z,100.00
2018-12-26T09:32:33.584Z,100.00
2018-12-26T09:33:40.783Z,99.61
2018-12-26T09:34:47.759Z,99.26
2018-12-26T09:35:53.738Z,100.00
2018-12-26T09:36:59.734Z,100.00
2018-12-26T09:38:05.696Z,100.00
2018-12-26T09:39:11.709Z,100.00
2018-12-26T09:40:17.687Z,100.00
2018-12-26T09:41:23.724Z,100.00
2018-12-26T09:42:29.702Z,100.00
2018-12-26T09:43:35.659Z,100.00
2018-12-26T09:44:41.702Z,100.00
2018-12-26T09:45:47.654Z,100.00
2018-12-26T09:46:53.624Z,100.00
2018-12-26T09:47:59.620Z,100.00
2018-12-26T09:49:05.614Z,100.00
2018-12-26T09:50:11.597Z,100.00
2018-12-26T09:51:17.208Z,100.00
2018-12-26T09:52:23.176Z,100.00
2018-12-26T09:53:29.067Z,100.00
2018-12-26T09:54:35.049Z,100.00
2018-12-26T09:55:41.035Z,100.00
2018-12-26T09:56:47.004Z,100.00
2018-12-26T09:57:53.078Z,100.00
2018-12-26T09:58:59.027Z,100.00
2018-12-26T10:00:04.329Z,100.00
2018-12-26T10:01:10.266Z,100.00
2018-12-26T10:02:16.218Z,100.00
2018-12-26T10:03:22.242Z,100.00
2018-12-26T10:04:28.214Z,100.00
2018-12-26T10:05:34.331Z,100.00
2018-12-26T10:06:40.287Z,100.00
2018-12-26T10:07:46.248Z,100.00
2018-12-26T10:08:52.215Z,100.00
2018-12-26T10:09:58.181Z,100.00
2018-12-26T10:11:04.173Z,100.00
2018-12-26T10:12:10.151Z,100.00
2018-12-26T10:13:16.162Z,100.00
2018-12-26T10:14:22.171Z,100.00
2018-12-26T10:15:28.168Z,100.00
2018-12-26T10:16:34.120Z,100.00
2018-12-26T10:17:40.072Z,100.00
2018-12-26T10:18:46.024Z,100.00
2018-12-26T10:19:52.088Z,100.00
2018-12-26T10:20:58.227Z,100.00
2018-12-26T10:22:04.189Z,100.00
2018-12-26T10:23:10.161Z,100.00
2018-12-26T10:24:16.153Z,100.00
2018-12-26T10:25:22.156Z,100.00
2018-12-26T10:26:28.216Z,100.00
2018-12-26T10:27:34.188Z,100.00
2018-12-26T10:28:40.166Z,100.00
2018-12-26T10:29:46.175Z,100.00
2018-12-26T10:30:52.150Z,100.00
2018-12-26T10:31:58.116Z,100.00
2018-12-26T10:33:04.736Z,100.00
2018-12-26T10:34:10.775Z,100.00
2018-12-26T10:35:16.769Z,100.00
2018-12-26T10:36:22.739Z,100.00
2018-12-26T10:37:28.712Z,100.00
2018-12-26T10:38:34.653Z,100.00
2018-12-26T10:39:40.708Z,100.00
2018-12-26T10:40:46.704Z,100.00
2018-12-26T10:41:52.663Z,100.00
2018-12-26T10:42:58.704Z,100.00
2018-12-26T10:44:04.281Z,100.00
2018-12-26T10:45:10.208Z,100.00
2018-12-26T10:46:16.214Z,100.00
2018-12-26T10:47:22.242Z,100.00
2018-12-26T10:48:28.688Z,100.00
2018-12-26T10:49:34.593Z,100.00
2018-12-26T10:50:40.525Z,100.00
2018-12-26T10:51:46.552Z,100.00
2018-12-26T10:52:52.546Z,100.00
2018-12-26T10:53:58.481Z,100.00
2018-12-26T10:55:03.770Z,100.00
2018-12-26T10:56:09.673Z,100.00
2018-12-26T10:57:15.641Z,100.00
2018-12-26T10:58:20.888Z,100.00
2018-12-26T10:59:26.817Z,100.00
2018-12-26T11:00:32.771Z,100.00
2018-12-26T11:01:38.754Z,100.00
2018-12-26T11:02:44.758Z,100.00
2018-12-26T11:03:50.733Z,100.00
2018-12-26T11:04:56.433Z,100.00
2018-12-26T11:06:02.335Z,100.00
2018-12-26T11:07:08.332Z,100.00
2018-12-26T11:08:14.320Z,100.00
2018-12-26T11:09:20.289Z,100.00
2018-12-26T11:10:26.226Z,100.00
2018-12-26T11:11:32.202Z,100.00
2018-12-26T11:12:38.173Z,100.00
2018-12-26T11:13:44.133Z,100.00
2018-12-26T11:14:50.061Z,100.00
2018-12-26T11:15:55.665Z,100.00
2018-12-26T11:17:01.606Z,100.00
2018-12-26T11:18:07.644Z,100.00
2018-12-26T11:19:13.266Z,100.00
2018-12-26T11:20:19.190Z,100.00
2018-12-26T11:21:25.249Z,100.00
2018-12-26T11:22:31.206Z,100.00
2018-12-26T11:23:37.189Z,100.00
2018-12-26T11:24:43.176Z,100.00
2018-12-26T11:25:49.136Z,100.00
2018-12-26T11:26:55.066Z,100.00
2018-12-26T11:28:01.074Z,100.00
2018-12-26T11:29:07.127Z,100.00
2018-12-26T11:30:12.798Z,100.00
2018-12-26T11:31:18.757Z,100.00
2018-12-26T11:32:24.811Z,100.00
2018-12-26T11:33:30.810Z,100.00
2018-12-26T11:34:36.782Z,100.00
2018-12-26T11:35:43.631Z,100.00
2018-12-26T11:36:48.908Z,100.00
2018-12-26T11:37:54.143Z,100.00
2018-12-26T11:39:00.147Z,100.00
2018-12-26T11:40:05.486Z,100.00
2018-12-26T11:41:11.257Z,100.00
2018-12-26T11:42:16.875Z,100.00
2018-12-26T11:43:22.858Z,100.00
2018-12-26T11:44:28.786Z,100.00
2018-12-26T11:45:34.775Z,100.00
2018-12-26T11:46:40.797Z,100.00
2018-12-26T11:47:46.847Z,100.00
2018-12-26T11:48:52.833Z,100.00
2018-12-26T11:49:58.769Z,100.00
2018-12-26T11:51:04.414Z,100.00
2018-12-26T11:52:10.483Z,100.00
2018-12-26T11:53:17.681Z,100.00
2018-12-26T11:54:23.726Z,100.00
2018-12-26T11:55:29.740Z,100.00
2018-12-26T11:56:35.740Z,100.00
2018-12-26T11:57:41.669Z,100.00
2018-12-26T11:58:47.648Z,100.00
2018-12-26T11:59:53.661Z,100.00
2018-12-26T12:00:59.657Z,100.00
2018-12-26T12:02:05.278Z,100.00
2018-12-26T12:03:11.256Z,100.00
2018-12-26T12:04:16.855Z,100.00
2018-12-26T12:05:22.515Z,100.00
2018-12-26T12:06:28.456Z,100.00
2018-12-26T12:07:34.449Z,100.00
2018-12-26T12:08:39.798Z,100.00
2018-12-26T12:09:45.492Z,100.00
2018-12-26T12:10:51.509Z,100.00
2018-12-26T12:11:57.481Z,100.00
2018-12-26T12:13:03.480Z,100.00
2018-12-26T12:14:09.110Z,100.00
2018-12-26T12:15:14.729Z,100.00
2018-12-26T12:16:20.673Z,100.00
2018-12-26T12:17:26.681Z,100.00
2018-12-26T12:18:32.726Z,100.00
2018-12-26T12:19:38.672Z,100.00
2018-12-26T12:20:44.641Z,100.00
2018-12-26T12:21:50.341Z,100.00
2018-12-26T12:22:55.584Z,100.00
2018-12-26T12:24:01.584Z,100.00
2018-12-26T12:25:07.231Z,100.00
2018-12-26T12:26:13.215Z,100.00
2018-12-26T12:27:19.342Z,100.00
2018-12-26T12:28:25.451Z,100.00
2018-12-26T12:29:35.888Z,100.00
2018-12-26T12:30:37.458Z,100.00
2018-12-26T12:31:43.458Z,100.00
2018-12-26T12:32:49.474Z,100.00
2018-12-26T12:33:54.843Z,100.00
2018-12-26T12:35:00.477Z,100.00
2018-12-26T12:36:06.126Z,100.00
2018-12-26T12:37:12.104Z,100.00
2018-12-26T12:38:17.718Z,100.00
2018-12-26T12:39:23.460Z,100.00
2018-12-26T12:40:29.497Z,100.00
2018-12-26T12:41:35.480Z,100.00
2018-12-26T12:42:41.688Z,100.00
2018-12-26T12:43:47.707Z,100.00
2018-12-26T12:44:53.061Z,100.00
2018-12-26T12:45:58.342Z,100.00
2018-12-26T12:47:04.004Z,100.00
2018-12-26T12:48:10.099Z,100.00
2018-12-26T12:49:15.396Z,100.00
2018-12-26T12:50:20.998Z,100.00
2018-12-26T12:51:26.970Z,100.00
2018-12-26T12:52:32.957Z,100.00
2018-12-26T12:53:38.898Z,100.00
2018-12-26T12:54:44.190Z,100.00
2018-12-26T12:55:49.603Z,100.00
2018-12-26T12:56:55.610Z,100.00
2018-12-26T12:58:01.209Z,100.00
2018-12-26T12:59:06.790Z,100.00
2018-12-26T13:00:12.430Z,100.00
2018-12-26T13:01:18.064Z,100.00
2018-12-26T13:02:23.421Z,100.00
2018-12-26T13:03:29.056Z,100.00
2018-12-26T13:04:34.365Z,100.00
2018-12-26T13:05:40.022Z,100.00
2018-12-26T13:06:46.490Z,100.00
2018-12-26T13:07:53.260Z,100.00
2018-12-26T13:08:59.283Z,100.00
2018-12-26T13:10:04.784Z,100.00
2018-12-26T13:11:10.787Z,100.00
2018-12-26T13:12:16.797Z,100.00
2018-12-26T13:13:22.790Z,100.00
2018-12-26T13:14:28.874Z,100.00
2018-12-26T13:15:34.907Z,100.00
2018-12-26T13:16:40.978Z,100.00
2018-12-26T13:17:46.920Z,100.00
2018-12-26T13:18:52.913Z,100.00
2018-12-26T13:19:58.903Z,100.00
2018-12-26T13:21:04.877Z,100.00
2018-12-26T13:22:10.882Z,100.00
2018-12-26T13:23:16.904Z,100.00
2018-12-26T13:24:22.933Z,100.00
2018-12-26T13:25:28.940Z,100.00
2018-12-26T13:26:34.934Z,100.00
2018-12-26T13:27:40.926Z,100.00
2018-12-26T13:28:47.923Z,100.00
2018-12-26T13:29:58.672Z,100.00
2018-12-26T13:31:05.957Z,100.00
2018-12-26T13:32:13.036Z,100.00
2018-12-26T13:33:19.757Z,100.00
2018-12-26T13:34:26.959Z,100.00
2018-12-26T13:35:33.889Z,100.00
2018-12-26T13:36:40.986Z,100.00
2018-12-26T13:37:48.199Z,100.00
2018-12-26T13:38:55.527Z,100.00
2018-12-26T13:40:02.124Z,100.00
2018-12-26T13:41:08.131Z,100.00
2018-12-26T13:42:14.113Z,100.00
2018-12-26T13:43:20.058Z,100.00
2018-12-26T13:44:26.087Z,100.00
2018-12-26T13:45:32.078Z,100.00
2018-12-26T13:46:38.076Z,100.00
2018-12-26T13:47:44.301Z,100.00
2018-12-26T13:48:50.294Z,100.00
2018-12-26T13:49:56.321Z,100.00
2018-12-26T13:51:02.280Z,100.00
2018-12-26T13:52:08.300Z,100.00
2018-12-26T13:53:13.898Z,100.00
2018-12-26T13:54:19.823Z,100.00
2018-12-26T13:55:25.856Z,100.00
2018-12-26T13:56:31.893Z,100.00
2018-12-26T13:57:38.130Z,100.00
2018-12-26T13:58:44.546Z,100.00
2018-12-26T13:59:51.823Z,100.00
2018-12-26T14:00:58.190Z,100.00
2018-12-26T14:02:04.205Z,100.00